Etusivu
METAR-TAF:

METAR-TAF

Lentoasemat :

Land O' Lakes, Wisconsin, Yhdysvallat

Leveyspiiri: 46-09-14N, Pituuspiiri: 089-12-43W, korkeus merenpinnasta: 520 m

Tämänhetkinen sää

Tämä raportti tehtiin 18 minuuttia sitten, kello 20.35 UTC
Tuuli 11 kn pohjoisen/luoteesta
Lämpötila -7°C
Kosteus 73%
Ilmanpaine 1019 hPa
Näkyvyys: 4.0 km
Hajanaisia pilviä 1700 ft:n korkeudessa
Hajanaisia pilviä 2500 ft:n korkeudessa
Pilvistä 3300 ft:n korkeudessa
heikkoa lumisadetta

METAR: KLNL 262035Z AUTO 34011KT 2 1/2SM -SN SCT017 SCT025 OVC033 M07/M11 A3010 RMK AO2 VIS 1V5 T10661107

Aika: 14:53 (20:53 UTC)


TAF: puuttuu

Säähavainnot ja -ennusteet yli 4000 lentoasemalta (METAR- ja TAF-raportit).

Käytössä olevat sääasemat on merkitty karttaan keltaisilla ja punaisilla pisteillä.

Aseta hiiri pisteen päälle nähdäksesi sääaseman nimen.

Klikkaa sitten nähdäksesi säähavainnot ja -ennusteet.

Kartan vaihtaminen: klikkaa mustalla rastilla varustettuja vihreitä pisteitä, niin voit zoomata sisään; viivalla varustettua vihreää pistettä, niin voit zoomata ulos tai vihreitä nuolia, niin pääset viereisille kartoille.


METAR-TAF: